Time;durP1;ratioP1;P1;durP2;ratioP2;P2;SDS_P1;SDS_P2;PMS_P1;PMS_P2;Temp;Humidity;BMP_temperature;BMP_pressure;BME280_temperature;BME280_humidity;BME280_pressure;Samples;Min_cycle;Max_cycle;Signal;HPM_P1;HPM_P2
2023/12/15 00:01:46;;;;;;;3.10;1.17;;;;;;;3.58;100.00;102038.47;5075119;28;20441;-64
2023/12/15 00:04:14;;;;;;;3.00;1.33;;;;;;;3.59;100.00;102040.13;5075367;28;20499;-64
2023/12/15 00:06:40;;;;;;;4.57;1.67;;;;;;;3.59;100.00;102045.50;5075423;28;20929;-64
2023/12/15 00:09:07;;;;;;;3.90;1.33;;;;;;;3.49;100.00;102040.59;5075274;28;20819;-64
2023/12/15 00:11:33;;;;;;;3.93;1.77;;;;;;;3.47;100.00;102047.22;5074956;28;20528;-64
2023/12/15 00:14:00;;;;;;;4.33;1.77;;;;;;;3.45;100.00;102054.63;5074848;28;20536;-64
2023/12/15 00:16:26;;;;;;;4.50;1.33;;;;;;;3.56;100.00;102053.94;5075621;28;20441;-64
2023/12/15 00:18:53;;;;;;;3.77;1.33;;;;;;;3.61;100.00;102055.97;5075068;28;20611;-64
2023/12/15 00:21:22;;;;;;;3.50;1.33;;;;;;;3.53;100.00;102049.03;5074736;28;20445;-64
2023/12/15 00:23:49;;;;;;;3.03;1.60;;;;;;;3.46;100.00;102053.63;5075240;28;20496;-64
2023/12/15 00:26:16;;;;;;;2.50;0.60;;;;;;;3.52;100.00;102055.41;5074943;28;20463;-64
2023/12/15 00:28:42;;;;;;;4.23;2.17;;;;;;;3.57;100.00;102057.44;5075428;28;20453;-64
2023/12/15 00:31:09;;;;;;;2.97;1.17;;;;;;;3.45;100.00;102055.47;5074852;28;20437;-64
2023/12/15 00:33:35;;;;;;;2.00;0.60;;;;;;;3.51;100.00;102057.28;5074717;28;20530;-64
2023/12/15 00:36:02;;;;;;;2.20;0.90;;;;;;;3.53;100.00;102062.41;5074683;28;20795;-64
2023/12/15 00:38:30;;;;;;;3.37;0.93;;;;;;;3.44;100.00;102069.88;5074675;28;20442;-64
2023/12/15 00:40:56;;;;;;;3.97;1.27;;;;;;;3.39;100.00;102082.28;5075175;28;20528;-64
2023/12/15 00:43:23;;;;;;;3.03;1.60;;;;;;;3.34;100.00;102079.44;5074472;28;20485;-64
2023/12/15 00:45:49;;;;;;;2.10;0.70;;;;;;;3.33;100.00;102089.34;5074610;28;20437;-64
2023/12/15 00:48:16;;;;;;;4.17;1.10;;;;;;;3.29;100.00;102088.94;5074537;28;20814;-64
2023/12/15 00:50:42;;;;;;;2.10;0.70;;;;;;;3.38;100.00;102086.03;5074527;28;20446;-64
2023/12/15 00:53:09;;;;;;;2.57;1.07;;;;;;;3.39;100.00;102083.13;5074358;28;20438;-64
2023/12/15 00:55:37;;;;;;;3.17;2.00;;;;;;;3.33;100.00;102086.66;5074307;28;20467;-64
2023/12/15 00:58:04;;;;;;;3.17;1.80;;;;;;;3.40;100.00;102095.47;5074518;28;20441;-65
2023/12/15 01:00:30;;;;;;;2.37;1.00;;;;;;;3.47;100.00;102095.44;5074615;28;20441;-64
2023/12/15 01:02:57;;;;;;;5.20;1.50;;;;;;;3.50;100.00;102095.81;5074553;28;20480;-64
2023/12/15 01:05:23;;;;;;;3.20;1.37;;;;;;;3.43;100.00;102096.91;5074107;28;20508;-64
2023/12/15 01:07:50;;;;;;;2.73;1.10;;;;;;;3.29;100.00;102099.66;5074181;28;20520;-64
2023/12/15 01:10:16;;;;;;;2.57;0.97;;;;;;;3.24;100.00;102104.03;5074049;28;20445;-64
2023/12/15 01:12:44;;;;;;;3.17;1.63;;;;;;;3.28;100.00;102098.03;5073756;28;20433;-64
2023/12/15 01:15:11;;;;;;;3.00;0.77;;;;;;;3.39;100.00;102112.56;5073978;28;20464;-64
2023/12/15 01:17:37;;;;;;;2.30;1.00;;;;;;;3.39;100.00;102109.91;5073944;28;20452;-64
2023/12/15 01:20:05;;;;;;;2.77;1.10;;;;;;;3.35;100.00;102129.28;5073711;28;20568;-64
2023/12/15 01:22:31;;;;;;;2.20;0.83;;;;;;;3.23;100.00;102116.59;5073897;28;20441;-66
2023/12/15 01:24:58;;;;;;;2.93;1.37;;;;;;;3.22;100.00;102122.97;5074179;28;20468;-64
2023/12/15 01:27:24;;;;;;;3.03;0.93;;;;;;;3.25;100.00;102125.22;5073838;28;20437;-65
2023/12/15 01:29:52;;;;;;;2.50;1.10;;;;;;;3.21;100.00;102128.53;5073971;28;20766;-65
2023/12/15 01:32:19;;;;;;;2.20;0.90;;;;;;;3.14;100.00;102127.75;5073770;28;20540;-65
2023/12/15 01:34:45;;;;;;;3.33;1.00;;;;;;;3.02;100.00;102128.41;5074099;28;20457;-65
2023/12/15 01:37:12;;;;;;;3.73;0.87;;;;;;;2.95;100.00;102145.53;5073774;28;20441;-65
2023/12/15 01:39:39;;;;;;;4.73;1.23;;;;;;;2.91;100.00;102144.31;5073728;28;20537;-65
2023/12/15 01:42:05;;;;;;;2.50;1.10;;;;;;;2.86;100.00;102150.28;5074103;28;20459;-64
2023/12/15 01:44:33;;;;;;;2.50;0.80;;;;;;;2.78;100.00;102156.69;5073832;28;20572;-65
2023/12/15 01:47:01;;;;;;;4.53;1.27;;;;;;;2.84;100.00;102156.91;5073795;28;20490;-64
2023/12/15 01:49:28;;;;;;;2.80;1.53;;;;;;;2.74;100.00;102151.97;5073602;28;20532;-64
2023/12/15 01:51:55;;;;;;;2.87;0.97;;;;;;;2.77;100.00;102165.75;5073567;28;20434;-64
2023/12/15 01:54:22;;;;;;;4.53;1.53;;;;;;;2.68;100.00;102169.69;5073808;28;20458;-64
2023/12/15 01:56:48;;;;;;;2.37;0.70;;;;;;;2.63;100.00;102163.31;5073478;28;20451;-64
2023/12/15 01:59:15;;;;;;;3.47;1.00;;;;;;;2.49;100.00;102175.91;5073454;28;20433;-65
2023/12/15 02:01:43;;;;;;;1.90;0.50;;;;;;;2.40;100.00;102163.78;5073534;28;20441;-64
2023/12/15 02:04:11;;;;;;;2.50;1.00;;;;;;;2.25;100.00;102166.66;5073313;28;20495;-64
2023/12/15 02:06:37;;;;;;;4.47;1.73;;;;;;;2.14;100.00;102170.78;5073140;28;20785;-64
2023/12/15 02:09:04;;;;;;;2.30;0.80;;;;;;;2.01;100.00;102160.91;5073431;28;20445;-64
2023/12/15 02:11:30;;;;;;;2.17;0.50;;;;;;;2.00;100.00;102161.13;5073701;28;20433;-64
2023/12/15 02:13:57;;;;;;;2.50;1.03;;;;;;;1.95;100.00;102174.28;5073494;28;20544;-64
2023/12/15 02:16:23;;;;;;;1.90;0.60;;;;;;;1.79;100.00;102167.47;5073530;28;20442;-65
2023/12/15 02:18:50;;;;;;;2.00;0.70;;;;;;;1.73;100.00;102173.63;5073838;28;20442;-65
2023/12/15 02:21:18;;;;;;;1.93;0.50;;;;;;;1.75;100.00;102176.91;5072892;28;20818;-64
2023/12/15 02:23:46;;;;;;;3.20;1.17;;;;;;;1.74;100.00;102178.75;5076733;28;20493;-64
2023/12/15 02:26:12;;;;;;;2.07;0.80;;;;;;;1.74;100.00;102180.59;5077031;28;20813;-65
2023/12/15 02:28:39;;;;;;;2.20;0.90;;;;;;;1.66;100.00;102186.13;5077198;28;20445;-65
2023/12/15 02:31:05;;;;;;;8.03;2.30;;;;;;;1.60;100.00;102193.09;5077283;28;20459;-65
2023/12/15 02:33:32;;;;;;;2.50;1.10;;;;;;;1.63;100.00;102192.69;5076999;28;20434;-65
2023/12/15 02:35:58;;;;;;;3.40;1.23;;;;;;;1.67;100.00;102185.91;5077115;28;20945;-64
2023/12/15 02:38:25;;;;;;;2.20;0.70;;;;;;;1.67;100.00;102188.59;5076592;28;20437;-64
2023/12/15 02:40:53;;;;;;;1.80;0.40;;;;;;;1.80;100.00;102195.81;5077612;28;20447;-64
2023/12/15 02:43:19;;;;;;;1.87;0.50;;;;;;;1.86;100.00;102199.50;5076975;28;20503;-64
2023/12/15 02:45:46;;;;;;;2.47;1.10;;;;;;;1.90;100.00;102196.22;5076848;28;20445;-64
2023/12/15 02:48:13;;;;;;;9.83;3.20;;;;;;;1.94;100.00;102199.31;5076822;28;20437;-64
2023/12/15 02:50:39;;;;;;;2.30;0.80;;;;;;;2.01;100.00;102206.34;5077081;28;20437;-64
2023/12/15 02:53:06;;;;;;;3.87;2.60;;;;;;;2.01;100.00;102197.50;5076865;28;20846;-65
2023/12/15 02:55:32;;;;;;;2.93;0.87;;;;;;;2.03;100.00;102206.94;5076632;28;20897;-65
2023/12/15 02:58:00;;;;;;;4.17;1.90;;;;;;;2.08;100.00;102206.34;5076242;28;21024;-65
2023/12/15 03:00:27;;;;;;;3.13;1.00;;;;;;;2.19;100.00;102202.22;5076173;28;20441;-64
2023/12/15 03:02:53;;;;;;;3.10;1.03;;;;;;;2.19;100.00;102207.59;5076496;28;20437;-66
2023/12/15 03:05:20;;;;;;;3.40;1.07;;;;;;;2.26;100.00;102209.25;5076372;28;20491;-64
2023/12/15 03:07:46;;;;;;;3.27;1.20;;;;;;;2.29;100.00;102205.31;5076564;28;20845;-64
2023/12/15 03:10:13;;;;;;;2.50;0.93;;;;;;;2.30;100.00;102222.16;5076126;28;20444;-64
2023/12/15 03:12:39;;;;;;;1.80;0.40;;;;;;;2.35;100.00;102230.44;5076329;28;20443;-64
2023/12/15 03:15:08;;;;;;;3.10;1.07;;;;;;;2.36;100.00;102232.88;5076667;28;20461;-64
2023/12/15 03:17:35;;;;;;;3.90;1.40;;;;;;;2.34;100.00;102228.75;5076648;28;20445;-64
2023/12/15 03:20:03;;;;;;;2.30;1.20;;;;;;;2.27;100.00;102234.13;5076249;28;20484;-64
2023/12/15 03:22:30;;;;;;;4.27;1.37;;;;;;;2.25;100.00;102236.97;5076223;28;20542;-64
2023/12/15 03:24:56;;;;;;;2.23;0.70;;;;;;;2.20;100.00;102243.97;5076069;28;20492;-64
2023/12/15 03:27:23;;;;;;;1.90;0.60;;;;;;;2.14;100.00;102234.09;5076425;28;20435;-65
2023/12/15 03:29:50;;;;;;;1.83;0.50;;;;;;;2.22;100.00;102242.75;5075771;28;20800;-64
2023/12/15 03:32:18;;;;;;;1.90;0.63;;;;;;;2.23;100.00;102239.03;5075706;28;20951;-64
2023/12/15 03:34:44;;;;;;;4.43;1.80;;;;;;;2.22;100.00;102242.75;5075222;28;20460;-64
2023/12/15 03:37:11;;;;;;;2.53;1.13;;;;;;;2.23;100.00;102247.06;5076015;28;20448;-64
2023/12/15 03:39:37;;;;;;;2.43;1.03;;;;;;;2.31;100.00;102250.56;5076273;28;20442;-64
2023/12/15 03:42:06;;;;;;;1.80;0.40;;;;;;;2.31;100.00;102254.06;5076461;28;20532;-64
2023/12/15 03:44:32;;;;;;;1.90;0.60;;;;;;;2.23;100.00;102252.41;5075676;28;20492;-64
2023/12/15 03:46:59;;;;;;;1.77;0.37;;;;;;;2.16;100.00;102251.56;5075858;28;20441;-64
2023/12/15 03:49:27;;;;;;;1.90;0.50;;;;;;;2.05;100.00;102257.53;5076029;28;20532;-64
2023/12/15 03:51:53;;;;;;;5.03;1.47;;;;;;;2.01;100.00;102256.28;5075709;28;20437;-65
2023/12/15 03:54:20;;;;;;;3.50;1.43;;;;;;;1.99;100.00;102253.81;5075562;28;20457;-64
2023/12/15 03:56:46;;;;;;;2.77;0.60;;;;;;;2.01;100.00;102248.28;5075968;28;20937;-64
2023/12/15 03:59:13;;;;;;;2.97;1.13;;;;;;;2.00;100.00;102247.44;5075955;28;20512;-64
2023/12/15 04:01:39;;;;;;;3.70;1.57;;;;;;;2.05;100.00;102256.72;5075471;28;20442;-65
2023/12/15 04:04:06;;;;;;;2.10;0.83;;;;;;;2.00;100.00;102262.66;5075279;28;20876;-64
2023/12/15 04:06:34;;;;;;;1.80;0.40;;;;;;;1.93;100.00;102259.13;5075667;28;20441;-64
2023/12/15 04:09:01;;;;;;;2.60;0.47;;;;;;;1.97;100.00;102265.72;5075388;28;20809;-65
2023/12/15 04:11:27;;;;;;;2.20;1.17;;;;;;;1.97;100.00;102266.53;5075254;28;20524;-65
2023/12/15 04:13:54;;;;;;;2.63;1.17;;;;;;;2.00;100.00;102265.34;5075306;28;20454;-65
2023/12/15 04:16:20;;;;;;;4.13;1.80;;;;;;;1.97;100.00;102271.06;5075146;28;20476;-65
2023/12/15 04:18:47;;;;;;;1.93;0.60;;;;;;;1.96;100.00;102278.25;5075027;28;20441;-65
2023/12/15 04:21:13;;;;;;;1.80;0.53;;;;;;;1.88;100.00;102272.28;5074744;28;20453;-65
2023/12/15 04:23:41;;;;;;;2.73;2.00;;;;;;;1.79;100.00;102274.31;5074935;28;21079;-65
2023/12/15 04:26:08;;;;;;;1.80;0.40;;;;;;;1.74;100.00;102277.59;5074756;28;20808;-65
2023/12/15 04:28:34;;;;;;;9.83;1.33;;;;;;;1.71;100.00;102283.31;5075359;28;20441;-65
2023/12/15 04:31:01;;;;;;;2.00;0.60;;;;;;;1.69;100.00;102285.38;5074912;28;20460;-65
2023/12/15 04:33:28;;;;;;;2.10;0.70;;;;;;;1.76;100.00;102294.22;5074767;28;20463;-65
2023/12/15 04:35:54;;;;;;;3.60;1.60;;;;;;;1.68;100.00;102282.88;5074777;28;20520;-65
2023/12/15 04:38:21;;;;;;;1.70;0.30;;;;;;;1.71;100.00;102288.66;5074734;28;20438;-65
2023/12/15 04:40:49;;;;;;;3.73;1.33;;;;;;;1.69;100.00;102296.06;5074975;28;20437;-65
2023/12/15 04:43:16;;;;;;;1.70;0.30;;;;;;;1.65;100.00;102289.47;5074340;28;20445;-65
2023/12/15 04:45:42;;;;;;;1.90;0.70;;;;;;;1.63;100.00;102286.16;5073296;28;20491;-65
2023/12/15 04:48:09;;;;;;;2.80;1.27;;;;;;;1.64;100.00;102287.81;5074831;28;20437;-65
2023/12/15 04:50:35;;;;;;;1.80;0.50;;;;;;;1.67;100.00;102286.59;5074837;28;20459;-65
2023/12/15 04:53:02;;;;;;;4.93;0.80;;;;;;;1.66;100.00;102288.44;5074452;28;20948;-65
2023/12/15 04:55:29;;;;;;;2.27;1.07;;;;;;;1.65;100.00;102292.13;5074306;28;20823;-65
2023/12/15 04:57:56;;;;;;;2.10;0.83;;;;;;;1.67;100.00;102300.75;5074261;28;20441;-65
2023/12/15 05:00:23;;;;;;;2.77;1.27;;;;;;;1.72;100.00;102292.97;5074567;28;20464;-65
2023/12/15 05:02:49;;;;;;;1.80;0.47;;;;;;;1.74;100.00;102296.28;5074085;28;20447;-65
2023/12/15 05:05:16;;;;;;;2.67;0.70;;;;;;;1.70;100.00;102303.03;5074316;28;20487;-64
2023/12/15 05:07:44;;;;;;;1.80;0.43;;;;;;;1.67;100.00;102308.78;5073903;28;21007;-64
2023/12/15 05:10:11;;;;;;;1.87;0.57;;;;;;;1.69;100.00;102305.94;5074354;28;20445;-64
2023/12/15 05:12:38;;;;;;;2.67;1.00;;;;;;;1.67;100.00;102306.09;5073987;28;20443;-65
2023/12/15 05:15:07;;;;;;;2.77;0.80;;;;;;;1.69;100.00;102313.94;5074153;28;20459;-65
2023/12/15 05:17:34;;;;;;;2.00;0.73;;;;;;;1.69;100.00;102312.09;5073957;28;20440;-64
2023/12/15 05:20:02;;;;;;;2.30;0.77;;;;;;;1.70;100.00;102313.72;5073763;28;20485;-64
2023/12/15 05:22:28;;;;;;;1.90;0.63;;;;;;;1.69;100.00;102317.44;5074191;28;20494;-64
2023/12/15 05:24:55;;;;;;;4.90;1.60;;;;;;;1.74;100.00;102327.50;5073711;28;20485;-65
2023/12/15 05:27:21;;;;;;;3.93;1.00;;;;;;;1.78;100.00;102326.09;5073773;28;20475;-65
2023/12/15 05:29:48;;;;;;;3.83;0.80;;;;;;;1.85;100.00;102320.75;5073982;28;20441;-65
2023/12/15 05:32:17;;;;;;;3.50;1.27;;;;;;;1.85;100.00;102321.59;5073791;28;20464;-65
2023/12/15 05:34:43;;;;;;;3.07;1.17;;;;;;;1.92;100.00;102322.44;5074093;28;20819;-64
2023/12/15 05:37:10;;;;;;;7.23;0.80;;;;;;;2.00;100.00;102330.28;5073684;28;20528;-66
2023/12/15 05:39:37;;;;;;;2.13;0.57;;;;;;;2.03;100.00;102324.53;5073892;28;20522;-64
2023/12/15 05:42:04;;;;;;;4.10;1.20;;;;;;;2.03;100.00;102319.16;5073094;28;20878;-65
2023/12/15 05:44:30;;;;;;;1.70;0.30;;;;;;;2.04;100.00;102317.34;5073119;28;20851;-65
2023/12/15 05:46:57;;;;;;;3.10;1.50;;;;;;;2.11;100.00;102326.19;5073003;28;20451;-65
2023/12/15 05:49:25;;;;;;;4.73;2.00;;;;;;;2.11;100.00;102318.16;5073261;28;20433;-65
2023/12/15 05:51:51;;;;;;;3.43;1.80;;;;;;;2.11;100.00;102312.00;5073378;28;20531;-65
2023/12/15 05:54:18;;;;;;;1.83;0.50;;;;;;;2.11;100.00;102315.50;5073285;28;20528;-66
2023/12/15 05:56:44;;;;;;;2.33;0.80;;;;;;;2.10;100.00;102318.38;5072987;28;20442;-65
2023/12/15 05:59:11;;;;;;;2.40;1.60;;;;;;;2.11;100.00;102323.53;5073519;28;20475;-66
2023/12/15 06:01:37;;;;;;;5.30;2.93;;;;;;;2.17;100.00;102336.09;5073110;28;21006;-65
2023/12/15 06:04:04;;;;;;;9.40;1.20;;;;;;;2.24;100.00;102342.25;5073727;28;20807;-65
2023/12/15 06:06:32;;;;;;;3.60;1.33;;;;;;;2.30;100.00;102353.19;5075353;28;20524;-65
2023/12/15 06:08:59;;;;;;;1.90;0.60;;;;;;;2.26;100.00;102350.94;5073593;28;20441;-65
2023/12/15 06:11:27;;;;;;;2.00;0.60;;;;;;;2.26;100.00;102356.28;5073370;28;20449;-65
2023/12/15 06:13:54;;;;;;;6.03;3.27;;;;;;;2.26;100.00;102356.28;5073428;28;20465;-65
2023/12/15 06:16:21;;;;;;;2.17;0.70;;;;;;;2.24;100.00;102355.63;5073497;28;20433;-65
2023/12/15 06:18:48;;;;;;;3.60;1.40;;;;;;;2.23;100.00;102356.66;5073387;28;20524;-65
2023/12/15 06:21:22;;;;;;;2.70;1.30;;;;;;;2.25;100.00;102359.94;5072947;28;20448;-65
2023/12/15 06:23:50;;;;;;;7.73;2.13;;;;;;;2.31;100.00;102357.53;5073570;28;20468;-65
2023/12/15 06:26:20;;;;;;;2.53;1.47;;;;;;;2.35;100.00;102364.13;5073420;28;20491;-65
2023/12/15 06:28:47;;;;;;;3.90;2.70;;;;;;;2.37;100.00;102367.41;5073862;28;20437;-65
2023/12/15 06:31:14;;;;;;;3.33;0.60;;;;;;;2.43;100.00;102382.63;5072956;28;20808;-65
2023/12/15 06:33:41;;;;;;;6.30;1.57;;;;;;;2.49;100.00;102388.00;5073191;28;20457;-65
2023/12/15 06:36:08;;;;;;;5.77;2.03;;;;;;;2.55;100.00;102391.69;5073200;28;20437;-67
2023/12/15 06:38:36;;;;;;;3.07;1.57;;;;;;;2.59;100.00;102400.97;5074249;28;20437;-65
2023/12/15 06:41:04;;;;;;;4.90;2.63;;;;;;;2.59;100.00;102411.66;5072778;28;20451;-65
2023/12/15 06:43:31;;;;;;;2.57;0.67;;;;;;;2.61;100.00;102401.63;5072692;28;20441;-65
2023/12/15 06:45:57;;;;;;;2.33;0.93;;;;;;;2.66;100.00;102406.34;5073004;28;20481;-65
2023/12/15 06:48:24;;;;;;;4.53;2.03;;;;;;;2.72;100.00;102408.19;5072994;28;20439;-65
2023/12/15 06:50:50;;;;;;;2.00;0.60;;;;;;;2.69;100.00;102417.44;5072960;28;20441;-64
2023/12/15 06:53:17;;;;;;;2.77;1.07;;;;;;;2.67;100.00;102421.38;5072686;28;20450;-65
2023/12/15 06:55:44;;;;;;;5.90;1.77;;;;;;;2.66;100.00;102428.56;5072619;28;20437;-65
2023/12/15 06:58:12;;;;;;;4.13;1.83;;;;;;;2.65;100.00;102429.56;5072917;28;20447;-65
2023/12/15 07:00:39;;;;;;;3.23;2.13;;;;;;;2.68;100.00;102428.34;5072869;28;20441;-65
2023/12/15 07:03:06;;;;;;;5.60;1.87;;;;;;;2.66;100.00;102428.56;5072591;28;20441;-65
2023/12/15 07:05:32;;;;;;;3.90;1.30;;;;;;;2.66;100.00;102427.75;5072420;28;20489;-65
2023/12/15 07:07:59;;;;;;;1.90;0.70;;;;;;;2.68;100.00;102431.03;5072613;28;20433;-66
2023/12/15 07:10:25;;;;;;;4.43;2.00;;;;;;;2.66;100.00;102419.72;5075495;28;20940;-65
2023/12/15 07:12:52;;;;;;;4.03;1.67;;;;;;;2.63;100.00;102426.28;5076235;28;20437;-65
2023/12/15 07:15:20;;;;;;;4.27;1.13;;;;;;;2.64;100.00;102433.28;5076286;28;20453;-64
2023/12/15 07:17:46;;;;;;;3.70;1.40;;;;;;;2.62;100.00;102437.22;5076291;28;20443;-65
2023/12/15 07:20:13;;;;;;;2.40;1.20;;;;;;;2.72;100.00;102443.81;5076037;28;20463;-68
2023/12/15 07:22:39;;;;;;;3.03;1.13;;;;;;;2.68;100.00;102441.75;5076191;28;20445;-66
2023/12/15 07:25:07;;;;;;;3.03;1.23;;;;;;;2.74;100.00;102446.25;5076064;28;20485;-65
2023/12/15 07:27:34;;;;;;;8.47;2.73;;;;;;;2.76;100.00;102442.38;5076173;28;20536;-64
2023/12/15 07:30:01;;;;;;;2.77;1.37;;;;;;;2.76;100.00;102447.72;5075965;28;20983;-64
2023/12/15 07:32:28;;;;;;;4.47;1.67;;;;;;;2.82;100.00;102437.22;5076343;28;20445;-64
2023/12/15 07:34:56;;;;;;;2.60;0.80;;;;;;;2.85;100.00;102442.19;5075915;28;20461;-64
2023/12/15 07:37:22;;;;;;;4.10;2.10;;;;;;;2.90;100.00;102440.53;5075518;28;20907;-64
2023/12/15 07:39:49;;;;;;;5.57;1.60;;;;;;;2.92;100.00;102445.69;5075960;28;20449;-66
2023/12/15 07:42:15;;;;;;;2.40;1.23;;;;;;;2.92;100.00;102443.00;5075902;28;20909;-65
2023/12/15 07:44:42;;;;;;;3.03;1.20;;;;;;;2.92;100.00;102446.53;5075990;28;20461;-65
2023/12/15 07:47:09;;;;;;;3.83;1.63;;;;;;;2.93;100.00;102447.34;5075807;28;20558;-65
2023/12/15 07:49:36;;;;;;;4.80;1.37;;;;;;;2.96;100.00;102457.63;5076422;28;20433;-65
2023/12/15 07:52:03;;;;;;;2.67;1.17;;;;;;;2.96;100.00;102460.31;5075843;28;20441;-65
2023/12/15 07:54:30;;;;;;;4.83;3.13;;;;;;;2.97;100.00;102459.31;5075601;28;21012;-65
2023/12/15 07:56:57;;;;;;;2.13;1.00;;;;;;;2.97;100.00;102456.63;5075650;28;20443;-65
2023/12/15 07:59:23;;;;;;;5.93;3.17;;;;;;;3.01;100.00;102464.03;5075559;28;20436;-65
2023/12/15 08:01:50;;;;;;;4.80;1.30;;;;;;;2.97;100.00;102465.47;5075626;28;20446;-65
2023/12/15 08:04:17;;;;;;;3.60;1.63;;;;;;;2.94;100.00;102471.22;5075323;28;20796;-65
2023/12/15 08:06:45;;;;;;;7.10;1.87;;;;;;;2.91;100.00;102468.94;5075449;28;20481;-65
2023/12/15 08:09:12;;;;;;;3.10;1.70;;;;;;;2.94;100.00;102459.69;5075407;28;20437;-65
2023/12/15 08:11:38;;;;;;;5.10;2.40;;;;;;;2.99;100.00;102459.91;5075443;28;20448;-65
2023/12/15 08:14:05;;;;;;;3.43;1.63;;;;;;;2.99;100.00;102463.41;5075430;28;20461;-65
2023/12/15 08:16:32;;;;;;;3.57;1.47;;;;;;;2.96;100.00;102457.63;5075589;28;20437;-65
2023/12/15 08:18:59;;;;;;;2.97;0.80;;;;;;;3.03;100.00;102458.47;5075195;28;20498;-65
2023/12/15 08:21:25;;;;;;;4.83;1.80;;;;;;;3.09;100.00;102467.53;5074869;28;21028;-65
2023/12/15 08:23:53;;;;;;;4.43;0.93;;;;;;;3.09;100.00;102475.56;5075125;28;20465;-65
2023/12/15 08:26:20;;;;;;;3.60;1.57;;;;;;;3.07;100.00;102465.06;5075108;28;20487;-65
2023/12/15 08:28:47;;;;;;;6.83;4.20;;;;;;;3.14;100.00;102454.34;5075043;28;20437;-65
2023/12/15 08:31:14;;;;;;;6.03;2.10;;;;;;;3.17;100.00;102468.16;5075023;28;20444;-65
2023/12/15 08:33:40;;;;;;;4.33;1.90;;;;;;;3.19;100.00;102466.13;5075073;28;20500;-65
2023/12/15 08:36:08;;;;;;;5.80;1.47;;;;;;;3.20;100.00;102466.94;5074904;28;20436;-65
2023/12/15 08:38:35;;;;;;;3.80;1.70;;;;;;;3.20;100.00;102472.28;5074777;28;20445;-65
2023/12/15 08:41:03;;;;;;;4.97;1.60;;;;;;;3.23;100.00;102475.38;5075136;28;20445;-65
2023/12/15 08:43:30;;;;;;;20.07;1.90;;;;;;;3.26;100.00;102477.63;5074535;28;20782;-65
2023/12/15 08:45:57;;;;;;;3.30;1.33;;;;;;;3.26;100.00;102476.81;5075221;28;20476;-65
2023/12/15 08:48:23;;;;;;;4.57;2.80;;;;;;;3.29;100.00;102474.56;5074663;28;20434;-68
2023/12/15 08:50:50;;;;;;;4.77;2.33;;;;;;;3.33;100.00;102485.69;5074609;28;20443;-64
2023/12/15 08:53:18;;;;;;;9.20;1.93;;;;;;;3.39;100.00;102490.22;5074478;28;20447;-64
2023/12/15 08:55:44;;;;;;;2.67;1.47;;;;;;;3.38;100.00;102491.25;5074428;28;20445;-64
2023/12/15 08:58:13;;;;;;;4.20;1.87;;;;;;;3.40;100.00;102494.53;5074319;28;20917;-64
2023/12/15 09:00:40;;;;;;;3.20;1.43;;;;;;;3.51;100.00;102503.81;5074334;28;20448;-64
2023/12/15 09:03:07;;;;;;;2.80;1.20;;;;;;;3.57;100.00;102505.66;5074564;28;20441;-64
2023/12/15 09:05:34;;;;;;;4.80;1.80;;;;;;;3.56;100.00;102514.75;5074095;28;20494;-64
2023/12/15 09:08:02;;;;;;;5.50;2.00;;;;;;;3.58;100.00;102520.69;5074630;28;20476;-64
2023/12/15 09:10:33;;;;;;;3.53;2.07;;;;;;;3.62;100.00;102527.28;5074164;28;20499;-66
2023/12/15 09:13:01;;;;;;;5.17;2.03;;;;;;;3.61;100.00;102531.00;5074263;28;20461;-66
2023/12/15 09:15:30;;;;;;;5.80;2.17;;;;;;;3.64;100.00;102527.94;5074147;28;21036;-68
2023/12/15 09:17:56;;;;;;;5.87;2.17;;;;;;;3.71;100.00;102527.91;5073711;28;21035;-65
2023/12/15 09:20:24;;;;;;;3.30;2.00;;;;;;;3.74;100.00;102531.00;5073705;28;20457;-64
2023/12/15 09:22:50;;;;;;;5.80;2.87;;;;;;;3.81;100.00;102531.03;5074336;28;20445;-64
2023/12/15 09:25:17;;;;;;;5.07;1.87;;;;;;;3.77;100.00;102535.97;5074037;28;20461;-64
2023/12/15 09:27:43;;;;;;;3.07;1.50;;;;;;;3.88;100.00;102542.53;5073601;28;20429;-64
2023/12/15 09:30:11;;;;;;;4.30;1.90;;;;;;;3.93;100.00;102548.09;5074414;28;20437;-64
2023/12/15 09:32:39;;;;;;;8.03;3.53;;;;;;;4.01;100.00;102555.13;5073658;28;20452;-64
2023/12/15 09:35:07;;;;;;;5.77;2.10;;;;;;;4.06;100.00;102557.97;5073680;28;20468;-64
2023/12/15 09:37:33;;;;;;;7.17;2.90;;;;;;;4.10;100.00;102561.91;5073739;28;20441;-64
2023/12/15 09:40:00;;;;;;;6.53;3.20;;;;;;;4.18;100.00;102559.00;5073691;28;20536;-64
2023/12/15 09:42:26;;;;;;;4.40;1.77;;;;;;;4.19;100.00;102563.31;5073457;28;20445;-64
2023/12/15 09:44:53;;;;;;;8.03;2.37;;;;;;;4.25;100.00;102565.19;5073601;28;20965;-64
2023/12/15 09:47:22;;;;;;;3.80;1.63;;;;;;;4.26;100.00;102561.47;5073574;28;20809;-64
2023/12/15 09:49:53;;;;;;;3.17;1.47;;;;;;;4.29;100.00;102565.56;5073609;28;20441;-64
2023/12/15 09:52:22;;;;;;;4.57;2.23;;;;;;;4.31;100.00;102568.88;5073663;28;20800;-64
2023/12/15 09:54:50;;;;;;;3.70;2.00;;;;;;;4.37;100.00;102572.56;5073543;28;20457;-64
2023/12/15 09:57:18;;;;;;;8.33;2.33;;;;;;;4.41;100.00;102573.81;5073637;28;20800;-64
2023/12/15 09:59:44;;;;;;;5.13;1.93;;;;;;;4.39;100.00;102578.56;5073170;28;20456;-64
2023/12/15 10:02:11;;;;;;;6.37;1.97;;;;;;;4.39;100.00;102581.25;5073444;28;21044;-64
2023/12/15 10:04:38;;;;;;;2.73;1.13;;;;;;;4.45;100.00;102569.66;5073092;28;20969;-64
2023/12/15 10:07:06;;;;;;;4.47;1.80;;;;;;;4.42;100.00;102570.09;5073454;28;20484;-63
2023/12/15 10:09:32;;;;;;;4.30;2.23;;;;;;;4.40;100.00;102572.16;5073841;28;20437;-64
2023/12/15 10:12:00;;;;;;;3.87;1.33;;;;;;;4.34;100.00;102575.66;5073389;28;20469;-63
2023/12/15 10:14:26;;;;;;;3.50;1.60;;;;;;;4.40;100.00;102577.53;5073534;28;20457;-64
2023/12/15 10:16:53;;;;;;;4.07;1.70;;;;;;;4.44;100.00;102582.25;5073444;28;20461;-63
2023/12/15 10:19:20;;;;;;;5.80;1.97;;;;;;;4.47;100.00;102578.31;5073005;28;20449;-63
2023/12/15 10:21:48;;;;;;;5.17;2.23;;;;;;;4.53;100.00;102588.22;5073093;28;20425;-65
2023/12/15 10:24:21;;;;;;;7.77;3.10;;;;;;;4.57;100.00;102597.50;5073467;28;20552;-63
2023/12/15 10:26:48;;;;;;;4.73;1.90;;;;;;;4.58;100.00;102579.53;5073099;28;20574;-63
2023/12/15 10:29:14;;;;;;;2.13;0.63;;;;;;;4.58;100.00;102580.38;5073653;28;20442;-63
2023/12/15 10:31:41;;;;;;;6.20;2.33;;;;;;;4.61;100.00;102573.75;5073173;28;20443;-63
2023/12/15 10:34:08;;;;;;;4.27;1.70;;;;;;;4.64;100.00;102579.50;5073356;28;20505;-63
2023/12/15 10:36:36;;;;;;;8.10;2.27;;;;;;;4.62;100.00;102586.97;5072867;28;20857;-63
2023/12/15 10:39:04;;;;;;;3.97;1.60;;;;;;;4.62;100.00;102583.44;5073142;28;20503;-63
2023/12/15 10:41:32;;;;;;;7.43;2.37;;;;;;;4.57;100.00;102583.28;5073092;28;20429;-63
2023/12/15 10:44:01;;;;;;;5.93;2.57;;;;;;;4.55;100.00;102576.22;5073624;28;20461;-63
2023/12/15 10:46:27;;;;;;;3.93;1.40;;;;;;;4.56;100.00;102571.72;5076888;28;20929;-63
2023/12/15 10:48:55;;;;;;;8.53;4.03;;;;;;;4.54;100.00;102569.22;5076374;28;20933;-63
2023/12/15 10:51:24;;;;;;;5.40;2.03;;;;;;;4.59;100.00;102570.44;5076995;28;20445;-63
2023/12/15 10:53:53;;;;;;;7.10;2.73;;;;;;;4.57;100.00;102562.63;5077270;28;20461;-63
2023/12/15 10:56:19;;;;;;;7.73;1.60;;;;;;;4.60;100.00;102569.41;5076471;28;20441;-63
2023/12/15 10:58:47;;;;;;;7.00;1.73;;;;;;;4.66;100.00;102573.94;5076663;28;20429;-63
2023/12/15 11:01:16;;;;;;;2.93;1.60;;;;;;;4.61;100.00;102579.94;5076702;28;20450;-63
2023/12/15 11:03:44;;;;;;;4.83;2.10;;;;;;;4.55;100.00;102591.50;5076320;28;20965;-63
2023/12/15 11:06:11;;;;;;;7.90;2.40;;;;;;;4.48;100.00;102588.03;5076401;28;20491;-63
2023/12/15 11:08:38;;;;;;;7.70;3.73;;;;;;;4.48;100.00;102582.69;5076849;28;20437;-63
2023/12/15 11:11:07;;;;;;;3.43;1.80;;;;;;;4.47;100.00;102589.06;5076839;28;20433;-63
2023/12/15 11:13:57;;;;;;;6.67;3.30;;;;;;;4.46;100.00;102587.41;5076677;28;20449;-63
2023/12/15 11:16:24;;;;;;;7.60;2.40;;;;;;;4.45;100.00;102585.78;5076399;28;20414;-63
2023/12/15 11:18:51;;;;;;;5.37;2.00;;;;;;;4.39;100.00;102590.13;5076379;28;20451;-63
2023/12/15 11:21:19;;;;;;;2.40;1.10;;;;;;;4.40;100.00;102593.63;5076194;28;20888;-63
2023/12/15 11:23:56;;;;;;;11.97;2.47;;;;;;;4.37;100.00;102586.00;5076355;28;20461;-63